createdAt,value
2022-12-16T00:01:36.503Z,98615.25
2022-12-16T00:04:10.075Z,98619.43
2022-12-16T00:06:43.326Z,98657.00
2022-12-16T00:09:16.895Z,98597.05
2022-12-16T00:11:50.215Z,98610.08
2022-12-16T00:14:23.483Z,98601.30
2022-12-16T00:16:56.836Z,98623.64
2022-12-16T00:19:31.826Z,98602.34
2022-12-16T00:22:05.139Z,98619.43
2022-12-16T00:24:38.988Z,98602.72
2022-12-16T00:27:12.277Z,98611.01
2022-12-16T00:29:45.628Z,98578.55
2022-12-16T00:32:18.860Z,98594.16
2022-12-16T00:34:52.193Z,98581.31
2022-12-16T00:37:25.515Z,98588.19
2022-12-16T00:39:58.825Z,98582.34
2022-12-16T00:42:32.045Z,98563.50
2022-12-16T00:45:05.685Z,98582.28
2022-12-16T00:47:42.556Z,98577.55
2022-12-16T00:50:14.057Z,98574.02
2022-12-16T00:52:47.861Z,98572.27
2022-12-16T00:55:21.858Z,98581.69
2022-12-16T00:57:55.180Z,98601.55
2022-12-16T01:00:31.405Z,98591.19
2022-12-16T01:03:04.707Z,98580.96
2022-12-16T01:05:40.034Z,98603.30
2022-12-16T01:08:13.420Z,98576.65
2022-12-16T01:10:52.387Z,98585.41
2022-12-16T01:13:26.798Z,98564.24
2022-12-16T01:16:03.860Z,98580.61
2022-12-16T01:18:38.366Z,98566.86
2022-12-16T01:21:14.570Z,98595.15
2022-12-16T01:23:48.681Z,98594.35
2022-12-16T01:26:22.091Z,98594.48
2022-12-16T01:28:55.353Z,98582.64
2022-12-16T01:31:28.824Z,98621.28
2022-12-16T01:34:02.233Z,98589.67
2022-12-16T01:36:35.569Z,98612.75
2022-12-16T01:39:11.249Z,98604.29
2022-12-16T01:41:44.552Z,98589.95
2022-12-16T01:44:19.953Z,98589.95
2022-12-16T01:46:55.826Z,98595.06
2022-12-16T01:49:32.431Z,98595.06
2022-12-16T01:52:08.721Z,98592.61
2022-12-16T01:54:44.828Z,98570.52
2022-12-16T01:57:21.620Z,98596.39
2022-12-16T01:59:57.654Z,98595.59
2022-12-16T02:02:31.152Z,98603.99
2022-12-16T02:05:22.935Z,98626.48
2022-12-16T02:08:02.702Z,98624.75
2022-12-16T02:10:42.814Z,98608.45
2022-12-16T02:13:22.214Z,98610.87
2022-12-16T02:16:01.970Z,98604.30
2022-12-16T02:18:41.546Z,98621.36
2022-12-16T02:21:42.988Z,98613.79
2022-12-16T02:27:55.048Z,98598.27
2022-12-16T02:31:08.955Z,98613.92
2022-12-16T02:33:52.095Z,98605.22
2022-12-16T02:39:35.749Z,98603.39
2022-12-16T02:42:13.952Z,98615.24
2022-12-16T02:44:51.955Z,98609.11
2022-12-16T02:47:26.338Z,98598.27
2022-12-16T02:49:59.793Z,98601.92
2022-12-16T02:52:36.720Z,98607.70
2022-12-16T02:55:12.416Z,98605.15
2022-12-16T02:58:00.728Z,98607.64
2022-12-16T03:00:38.225Z,98611.13
2022-12-16T03:03:14.599Z,98603.45
2022-12-16T03:05:50.829Z,98610.27
2022-12-16T03:08:27.746Z,98598.94
2022-12-16T03:11:03.389Z,98615.95
2022-12-16T03:13:39.738Z,98610.70
2022-12-16T03:16:16.462Z,98631.30
2022-12-16T03:18:54.879Z,98604.19
2022-12-16T03:21:31.166Z,98620.20
2022-12-16T03:24:08.064Z,98626.18
2022-12-16T03:26:44.668Z,98624.52
2022-12-16T03:29:20.741Z,98632.19
2022-12-16T03:31:57.872Z,98618.44
2022-12-16T03:34:35.406Z,98637.31
2022-12-16T03:37:12.271Z,98620.27
2022-12-16T03:39:48.818Z,98635.68
2022-12-16T03:42:22.228Z,98630.66
2022-12-16T03:44:55.563Z,98625.61
2022-12-16T03:47:30.947Z,98651.19
2022-12-16T03:50:04.276Z,98644.55
2022-12-16T03:52:38.012Z,98641.26
2022-12-16T03:55:18.412Z,98648.03
2022-12-16T03:57:55.805Z,98646.51
2022-12-16T04:00:29.642Z,98663.19
2022-12-16T04:03:03.225Z,98678.07
2022-12-16T04:05:36.657Z,98665.38
2022-12-16T04:08:09.944Z,98666.02
2022-12-16T04:11:00.523Z,98680.56
2022-12-16T04:13:51.350Z,98673.98
2022-12-16T04:16:42.529Z,98682.19
2022-12-16T04:19:46.491Z,98687.44
2022-12-16T04:22:49.366Z,98700.00
2022-12-16T04:25:36.726Z,98696.44
2022-12-16T04:28:09.619Z,98724.66
2022-12-16T04:30:45.518Z,98716.08
2022-12-16T04:33:39.768Z,98707.77
2022-12-16T04:36:30.351Z,98728.37
2022-12-16T04:39:22.899Z,98727.52
2022-12-16T04:42:21.226Z,98722.16
2022-12-16T04:45:11.680Z,98745.19
2022-12-16T04:48:02.639Z,98742.69
2022-12-16T04:50:53.530Z,98759.08
2022-12-16T04:53:44.668Z,98751.03
2022-12-16T04:56:35.478Z,98743.66
2022-12-16T04:59:25.999Z,98764.61
2022-12-16T05:02:16.686Z,98757.01
2022-12-16T05:05:07.432Z,98768.69
2022-12-16T05:07:58.321Z,98773.08
2022-12-16T05:10:49.353Z,98783.56
2022-12-16T05:13:40.298Z,98793.00
2022-12-16T05:16:31.275Z,98796.94
2022-12-16T05:19:23.932Z,98803.78
2022-12-16T05:22:14.727Z,98800.22
2022-12-16T05:25:05.279Z,98820.03
2022-12-16T05:27:56.396Z,98819.13
2022-12-16T05:30:47.115Z,98811.31
2022-12-16T05:33:37.727Z,98819.71
2022-12-16T05:36:29.424Z,98831.53
2022-12-16T05:39:19.891Z,98835.06
2022-12-16T05:42:11.990Z,98837.62
2022-12-16T05:45:02.453Z,98855.38
2022-12-16T05:47:53.066Z,98849.94
2022-12-16T05:50:38.386Z,98856.56
2022-12-16T05:53:33.849Z,98869.11
2022-12-16T05:56:29.392Z,98869.50
2022-12-16T05:59:37.980Z,98887.91
2022-12-16T06:02:32.368Z,98881.17
2022-12-16T06:05:24.529Z,98877.75
2022-12-16T06:08:16.245Z,98899.47
2022-12-16T06:11:23.515Z,98920.11
2022-12-16T06:16:55.722Z,98906.22
2022-12-16T06:19:46.180Z,98912.59
2022-12-16T06:22:36.822Z,98938.81
2022-12-16T06:25:28.362Z,98934.48
2022-12-16T06:28:21.378Z,98942.88
2022-12-16T06:31:12.568Z,98950.48
2022-12-16T06:34:03.330Z,98961.34
2022-12-16T06:36:53.846Z,98958.94
2022-12-16T06:39:48.656Z,98968.87
2022-12-16T06:42:37.021Z,98998.66
2022-12-16T06:45:34.331Z,99006.52
2022-12-16T06:48:21.126Z,98989.33
2022-12-16T06:51:11.645Z,99006.97
2022-12-16T06:54:21.830Z,99006.47
2022-12-16T06:59:52.861Z,99030.27
2022-12-16T07:02:43.572Z,99042.98
2022-12-16T07:05:34.117Z,99059.14
2022-12-16T07:08:25.228Z,99042.82
2022-12-16T07:11:17.256Z,99059.73
2022-12-16T07:14:08.199Z,99067.40
2022-12-16T07:16:58.892Z,99073.84
2022-12-16T07:19:49.760Z,99083.28
2022-12-16T07:23:09.703Z,99090.52
2022-12-16T07:28:33.747Z,99110.50
2022-12-16T07:31:24.460Z,99107.51
2022-12-16T07:34:34.590Z,99110.06
2022-12-16T07:40:04.204Z,99119.86
2022-12-16T07:42:54.762Z,99126.89
2022-12-16T07:45:45.707Z,99148.58
2022-12-16T07:48:36.379Z,99149.44
2022-12-16T07:51:27.313Z,99142.67
2022-12-16T07:54:18.057Z,99169.34
2022-12-16T07:57:08.592Z,99162.67
2022-12-16T07:59:59.099Z,99176.14
2022-12-16T08:02:51.733Z,99184.88
2022-12-16T08:05:42.356Z,99184.09
2022-12-16T08:08:35.801Z,99200.30
2022-12-16T08:11:26.574Z,99213.08
2022-12-16T08:14:17.025Z,99203.47
2022-12-16T08:17:07.538Z,99226.26
2022-12-16T08:19:58.470Z,99222.75
2022-12-16T08:22:48.958Z,99220.98
2022-12-16T08:25:39.412Z,99231.98
2022-12-16T08:28:30.011Z,99242.11
2022-12-16T08:31:20.882Z,99239.84
2022-12-16T08:34:11.885Z,99236.30
2022-12-16T08:37:02.464Z,99248.78
2022-12-16T08:40:17.685Z,99246.05
2022-12-16T08:42:45.051Z,99248.09
2022-12-16T08:45:36.237Z,99259.13
2022-12-16T08:48:27.557Z,99264.32
2022-12-16T08:51:37.572Z,99267.66
2022-12-16T08:57:15.854Z,99255.18
2022-12-16T09:00:06.510Z,99275.72
2022-12-16T09:02:57.457Z,99283.69
2022-12-16T09:05:48.291Z,99289.39
2022-12-16T09:08:38.740Z,99297.23
2022-12-16T09:11:29.478Z,99304.64
2022-12-16T09:14:20.046Z,99313.95
2022-12-16T09:17:10.479Z,99316.89
2022-12-16T09:20:01.101Z,99317.50
2022-12-16T09:22:52.349Z,99313.86
2022-12-16T09:25:45.246Z,99330.57
2022-12-16T09:28:35.839Z,99316.93
2022-12-16T09:31:29.487Z,99331.86
2022-12-16T09:34:20.515Z,99341.20
2022-12-16T09:37:11.421Z,99347.56
2022-12-16T09:40:02.162Z,99349.25
2022-12-16T09:42:56.834Z,99341.68
2022-12-16T09:45:51.746Z,99352.11
2022-12-16T09:48:45.310Z,99359.95
2022-12-16T09:51:37.886Z,99365.16
2022-12-16T09:54:32.374Z,99370.27
2022-12-16T09:57:43.260Z,99375.58
2022-12-16T10:00:37.888Z,99376.64
2022-12-16T10:03:36.121Z,99382.44
2022-12-16T10:06:31.018Z,99383.52
2022-12-16T10:09:25.338Z,99392.65
2022-12-16T10:12:19.360Z,99391.37
2022-12-16T10:15:12.706Z,99405.92
2022-12-16T10:20:50.373Z,99398.46
2022-12-16T10:23:43.892Z,99408.88
2022-12-16T10:26:37.358Z,99412.22
2022-12-16T10:29:32.254Z,99411.12
2022-12-16T10:32:38.390Z,99413.59
2022-12-16T10:35:36.419Z,99431.84
2022-12-16T10:38:31.707Z,99439.50
2022-12-16T10:41:22.487Z,99437.26
2022-12-16T10:44:16.542Z,99452.08
2022-12-16T10:47:07.015Z,99451.67
2022-12-16T10:49:57.631Z,99476.33
2022-12-16T10:52:49.598Z,99473.88
2022-12-16T10:55:43.473Z,99492.52
2022-12-16T11:01:18.153Z,99502.47
2022-12-16T11:04:08.899Z,99498.53
2022-12-16T11:07:00.584Z,99514.53
2022-12-16T11:09:52.400Z,99509.20
2022-12-16T11:12:46.516Z,99508.02
2022-12-16T11:16:06.313Z,99507.05
2022-12-16T11:21:40.179Z,99521.61
2022-12-16T11:24:36.921Z,99525.43
2022-12-16T11:27:34.505Z,99521.38
2022-12-16T11:30:37.309Z,99526.91
2022-12-16T11:33:35.757Z,99540.36
2022-12-16T11:36:31.180Z,99544.36
2022-12-16T11:39:23.096Z,99558.72
2022-12-16T11:42:15.030Z,99563.73
2022-12-16T11:47:53.581Z,99572.00
2022-12-16T11:50:47.426Z,99580.92
2022-12-16T11:53:46.772Z,99580.59
2022-12-16T11:56:40.454Z,99598.17
2022-12-16T11:59:36.332Z,99597.16
2022-12-16T12:02:32.811Z,99603.72
2022-12-16T12:05:24.042Z,99599.52
2022-12-16T12:08:17.524Z,99619.61
2022-12-16T12:11:17.126Z,99618.73
2022-12-16T12:14:13.386Z,99624.62
2022-12-16T12:17:11.472Z,99628.37
2022-12-16T12:20:08.350Z,99630.70
2022-12-16T12:22:59.189Z,99628.95
2022-12-16T12:25:52.605Z,99637.81
2022-12-16T12:28:53.938Z,99637.38
2022-12-16T12:31:51.389Z,99641.58
2022-12-16T12:34:46.695Z,99641.48
2022-12-16T12:37:52.528Z,99642.25
2022-12-16T12:40:50.846Z,99647.92
2022-12-16T12:43:47.931Z,99648.27
2022-12-16T12:46:42.880Z,99652.70
2022-12-16T12:49:37.607Z,99652.70
2022-12-16T12:52:32.968Z,99664.69
2022-12-16T12:55:27.896Z,99660.35
2022-12-16T12:58:21.391Z,99662.91
2022-12-16T13:01:15.509Z,99665.56
2022-12-16T13:04:09.119Z,99671.53
2022-12-16T13:07:00.661Z,99659.34
2022-12-16T13:09:53.076Z,99673.69
2022-12-16T13:12:46.623Z,99680.91
2022-12-16T13:15:56.258Z,99679.80
2022-12-16T13:18:48.365Z,99688.11
2022-12-16T13:25:24.095Z,99700.00
2022-12-16T13:30:56.036Z,99707.31
2022-12-16T13:33:50.691Z,99715.86
2022-12-16T13:36:44.254Z,99718.41
2022-12-16T13:39:47.414Z,99718.41
2022-12-16T13:43:13.326Z,99724.52
2022-12-16T13:46:06.653Z,99715.09
2022-12-16T13:49:23.501Z,99732.63
2022-12-16T13:55:10.687Z,99745.69
2022-12-16T13:58:04.961Z,99753.70
2022-12-16T14:00:58.165Z,99749.92
2022-12-16T14:03:54.856Z,99756.81
2022-12-16T14:06:47.944Z,99759.36
2022-12-16T14:09:48.847Z,99771.10
2022-12-16T14:13:01.625Z,99778.55
2022-12-16T14:15:56.503Z,99775.75
2022-12-16T14:18:57.598Z,99775.65
2022-12-16T14:22:05.187Z,99773.20
2022-12-16T14:24:57.974Z,99794.84
2022-12-16T14:27:51.252Z,99794.07
2022-12-16T14:30:44.652Z,99804.06
2022-12-16T14:33:42.831Z,99813.60
2022-12-16T14:36:42.431Z,99816.67
2022-12-16T14:39:35.306Z,99815.91
2022-12-16T14:42:36.328Z,99806.25
2022-12-16T14:46:00.889Z,99805.02
2022-12-16T14:51:57.961Z,99812.80
2022-12-16T14:54:52.922Z,99823.34
2022-12-16T14:57:45.977Z,99822.58
2022-12-16T15:00:38.833Z,99826.55
2022-12-16T15:03:32.919Z,99827.22
2022-12-16T15:06:27.611Z,99825.68
2022-12-16T15:12:34.359Z,99824.66
2022-12-16T15:15:34.292Z,99827.52
2022-12-16T15:18:40.422Z,99841.07
2022-12-16T15:21:33.344Z,99846.17
2022-12-16T15:24:28.489Z,99852.03
2022-12-16T15:27:42.230Z,99849.23
2022-12-16T15:31:11.553Z,99850.14
2022-12-16T15:34:02.025Z,99854.99
2022-12-16T15:36:55.725Z,99848.80
2022-12-16T15:39:48.951Z,99856.56
2022-12-16T15:42:43.536Z,99866.10
2022-12-16T15:45:41.316Z,99861.66
